sensor_id;sensor_type;location;lat;lon;timestamp;P1;durP1;ratioP1;P2;durP2;ratioP2
16967;SDS011;64862;54.398;10.126;2023-01-29T00:00:48;42.90;;;19.50;;
16967;SDS011;64862;54.398;10.126;2023-01-29T00:10:51;42.72;;;19.55;;
16967;SDS011;64862;54.398;10.126;2023-01-29T00:20:53;33.65;;;17.55;;
16967;SDS011;64862;54.398;10.126;2023-01-29T00:30:56;41.28;;;18.33;;
16967;SDS011;64862;54.398;10.126;2023-01-29T00:41:03;41.22;;;16.85;;
16967;SDS011;64862;54.398;10.126;2023-01-29T00:51:26;39.65;;;17.13;;
16967;SDS011;64862;54.398;10.126;2023-01-29T01:01:28;40.78;;;16.58;;
16967;SDS011;64862;54.398;10.126;2023-01-29T01:21:51;28.85;;;13.23;;
16967;SDS011;64862;54.398;10.126;2023-01-29T01:31:55;33.70;;;14.93;;
16967;SDS011;64862;54.398;10.126;2023-01-29T01:41:57;33.50;;;14.93;;
16967;SDS011;64862;54.398;10.126;2023-01-29T01:52:00;30.08;;;13.15;;
16967;SDS011;64862;54.398;10.126;2023-01-29T02:02:03;27.00;;;12.30;;
16967;SDS011;64862;54.398;10.126;2023-01-29T02:12:25;19.63;;;6.10;;
16967;SDS011;64862;54.398;10.126;2023-01-29T02:33:04;14.57;;;4.40;;
16967;SDS011;64862;54.398;10.126;2023-01-29T02:43:15;19.52;;;5.30;;
16967;SDS011;64862;54.398;10.126;2023-01-29T02:53:28;21.30;;;4.93;;
16967;SDS011;64862;54.398;10.126;2023-01-29T03:03:38;18.20;;;4.57;;
16967;SDS011;64862;54.398;10.126;2023-01-29T03:13:46;13.43;;;3.58;;
16967;SDS011;64862;54.398;10.126;2023-01-29T03:23:53;14.07;;;3.50;;
16967;SDS011;64862;54.398;10.126;2023-01-29T03:34:16;14.27;;;2.78;;
16967;SDS011;64862;54.398;10.126;2023-01-29T03:44:25;12.70;;;3.43;;
16967;SDS011;64862;54.398;10.126;2023-01-29T03:54:38;20.60;;;6.60;;
16967;SDS011;64862;54.398;10.126;2023-01-29T04:04:47;19.80;;;6.85;;
16967;SDS011;64862;54.398;10.126;2023-01-29T04:14:54;14.20;;;4.53;;
16967;SDS011;64862;54.398;10.126;2023-01-29T04:25:01;10.27;;;3.00;;
16967;SDS011;64862;54.398;10.126;2023-01-29T04:35:13;13.32;;;4.65;;
16967;SDS011;64862;54.398;10.126;2023-01-29T04:45:23;24.05;;;9.60;;
16967;SDS011;64862;54.398;10.126;2023-01-29T04:55:35;20.58;;;10.68;;
16967;SDS011;64862;54.398;10.126;2023-01-29T05:05:44;23.42;;;11.25;;
16967;SDS011;64862;54.398;10.126;2023-01-29T05:15:51;21.58;;;11.13;;
16967;SDS011;64862;54.398;10.126;2023-01-29T05:25:57;35.20;;;16.67;;
16967;SDS011;64862;54.398;10.126;2023-01-29T05:36:01;37.67;;;17.73;;
16967;SDS011;64862;54.398;10.126;2023-01-29T05:46:03;33.80;;;16.23;;
16967;SDS011;64862;54.398;10.126;2023-01-29T05:56:08;31.10;;;14.85;;
16967;SDS011;64862;54.398;10.126;2023-01-29T06:06:10;28.42;;;13.63;;
16967;SDS011;64862;54.398;10.126;2023-01-29T06:16:13;26.35;;;13.15;;
16967;SDS011;64862;54.398;10.126;2023-01-29T06:26:15;15.80;;;8.98;;
16967;SDS011;64862;54.398;10.126;2023-01-29T06:36:18;9.65;;;5.32;;
16967;SDS011;64862;54.398;10.126;2023-01-29T06:46:20;7.70;;;3.97;;
16967;SDS011;64862;54.398;10.126;2023-01-29T06:56:24;8.23;;;3.03;;
16967;SDS011;64862;54.398;10.126;2023-01-29T07:06:26;10.05;;;2.80;;
16967;SDS011;64862;54.398;10.126;2023-01-29T07:16:30;10.68;;;3.00;;
16967;SDS011;64862;54.398;10.126;2023-01-29T07:26:32;11.63;;;3.38;;
16967;SDS011;64862;54.398;10.126;2023-01-29T07:36:36;7.35;;;3.20;;
16967;SDS011;64862;54.398;10.126;2023-01-29T07:46:38;8.32;;;5.03;;
16967;SDS011;64862;54.398;10.126;2023-01-29T07:56:41;16.35;;;9.00;;
16967;SDS011;64862;54.398;10.126;2023-01-29T08:06:43;16.98;;;10.63;;
16967;SDS011;64862;54.398;10.126;2023-01-29T08:16:46;17.58;;;10.63;;
16967;SDS011;64862;54.398;10.126;2023-01-29T08:26:48;17.35;;;10.75;;
16967;SDS011;64862;54.398;10.126;2023-01-29T08:36:52;14.32;;;9.80;;
16967;SDS011;64862;54.398;10.126;2023-01-29T08:46:54;18.48;;;10.73;;
16967;SDS011;64862;54.398;10.126;2023-01-29T08:56:57;23.40;;;13.10;;
16967;SDS011;64862;54.398;10.126;2023-01-29T09:06:59;23.02;;;12.57;;
16967;SDS011;64862;54.398;10.126;2023-01-29T09:17:02;20.02;;;13.15;;
16967;SDS011;64862;54.398;10.126;2023-01-29T09:27:04;22.65;;;13.57;;
16967;SDS011;64862;54.398;10.126;2023-01-29T09:37:07;18.02;;;11.93;;
16967;SDS011;64862;54.398;10.126;2023-01-29T09:47:10;26.77;;;13.35;;
16967;SDS011;64862;54.398;10.126;2023-01-29T09:57:18;20.98;;;12.68;;
16967;SDS011;64862;54.398;10.126;2023-01-29T10:07:30;18.00;;;10.77;;
16967;SDS011;64862;54.398;10.126;2023-01-29T10:18:14;18.48;;;10.43;;
16967;SDS011;64862;54.398;10.126;2023-01-29T10:28:39;16.98;;;9.93;;
16967;SDS011;64862;54.398;10.126;2023-01-29T10:38:46;17.63;;;11.93;;
16967;SDS011;64862;54.398;10.126;2023-01-29T10:48:53;18.52;;;11.77;;
16967;SDS011;64862;54.398;10.126;2023-01-29T10:59:08;24.23;;;14.10;;
16967;SDS011;64862;54.398;10.126;2023-01-29T11:09:27;27.17;;;16.15;;
16967;SDS011;64862;54.398;10.126;2023-01-29T11:19:38;28.73;;;16.00;;
16967;SDS011;64862;54.398;10.126;2023-01-29T11:29:42;27.58;;;15.30;;
16967;SDS011;64862;54.398;10.126;2023-01-29T11:39:47;25.25;;;13.63;;
16967;SDS011;64862;54.398;10.126;2023-01-29T11:49:50;24.40;;;14.30;;
16967;SDS011;64862;54.398;10.126;2023-01-29T11:59:59;24.42;;;13.48;;
16967;SDS011;64862;54.398;10.126;2023-01-29T12:10:27;22.50;;;12.88;;
16967;SDS011;64862;54.398;10.126;2023-01-29T12:20:34;21.55;;;12.10;;
16967;SDS011;64862;54.398;10.126;2023-01-29T12:30:40;20.02;;;12.80;;
16967;SDS011;64862;54.398;10.126;2023-01-29T12:50:54;27.50;;;15.98;;
16967;SDS011;64862;54.398;10.126;2023-01-29T13:01:03;33.40;;;17.65;;
16967;SDS011;64862;54.398;10.126;2023-01-29T13:11:13;32.22;;;17.77;;
16967;SDS011;64862;54.398;10.126;2023-01-29T13:21:22;34.85;;;19.33;;
16967;SDS011;64862;54.398;10.126;2023-01-29T13:31:28;30.13;;;17.75;;
16967;SDS011;64862;54.398;10.126;2023-01-29T13:41:38;22.23;;;14.18;;
16967;SDS011;64862;54.398;10.126;2023-01-29T13:51:42;20.40;;;13.27;;
16967;SDS011;64862;54.398;10.126;2023-01-29T14:02:02;22.90;;;14.13;;
16967;SDS011;64862;54.398;10.126;2023-01-29T14:12:38;24.52;;;15.30;;
16967;SDS011;64862;54.398;10.126;2023-01-29T14:22:43;28.67;;;16.17;;
16967;SDS011;64862;54.398;10.126;2023-01-29T14:32:53;28.90;;;18.77;;
16967;SDS011;64862;54.398;10.126;2023-01-29T14:42:58;24.17;;;14.90;;
16967;SDS011;64862;54.398;10.126;2023-01-29T14:53:04;19.33;;;12.43;;
16967;SDS011;64862;54.398;10.126;2023-01-29T15:03:14;25.38;;;16.77;;
16967;SDS011;64862;54.398;10.126;2023-01-29T15:13:23;29.42;;;18.15;;
16967;SDS011;64862;54.398;10.126;2023-01-29T15:23:33;29.35;;;17.92;;
16967;SDS011;64862;54.398;10.126;2023-01-29T15:33:35;33.22;;;17.85;;
16967;SDS011;64862;54.398;10.126;2023-01-29T15:43:41;32.72;;;18.50;;
16967;SDS011;64862;54.398;10.126;2023-01-29T15:53:46;38.17;;;22.00;;
16967;SDS011;64862;54.398;10.126;2023-01-29T16:03:52;43.58;;;22.00;;
16967;SDS011;64862;54.398;10.126;2023-01-29T16:13:55;34.10;;;18.70;;
16967;SDS011;64862;54.398;10.126;2023-01-29T16:23:59;34.67;;;18.30;;
16967;SDS011;64862;54.398;10.126;2023-01-29T16:34:05;34.60;;;18.25;;
16967;SDS011;64862;54.398;10.126;2023-01-29T16:54:34;22.75;;;14.20;;
16967;SDS011;64862;54.398;10.126;2023-01-29T17:04:44;24.70;;;14.75;;
16967;SDS011;64862;54.398;10.126;2023-01-29T17:14:53;26.55;;;13.48;;
16967;SDS011;64862;54.398;10.126;2023-01-29T17:24:58;35.03;;;18.90;;
16967;SDS011;64862;54.398;10.126;2023-01-29T17:35:00;27.42;;;14.73;;
16967;SDS011;64862;54.398;10.126;2023-01-29T17:45:06;22.30;;;12.88;;
16967;SDS011;64862;54.398;10.126;2023-01-29T17:55:09;18.75;;;12.35;;
16967;SDS011;64862;54.398;10.126;2023-01-29T18:05:13;17.73;;;11.10;;
16967;SDS011;64862;54.398;10.126;2023-01-29T18:15:16;20.92;;;13.23;;
16967;SDS011;64862;54.398;10.126;2023-01-29T18:25:19;23.50;;;13.90;;
16967;SDS011;64862;54.398;10.126;2023-01-29T18:35:23;30.50;;;17.00;;
16967;SDS011;64862;54.398;10.126;2023-01-29T18:45:27;35.72;;;20.58;;
16967;SDS011;64862;54.398;10.126;2023-01-29T18:55:29;35.72;;;21.30;;
16967;SDS011;64862;54.398;10.126;2023-01-29T19:05:33;38.05;;;21.08;;
16967;SDS011;64862;54.398;10.126;2023-01-29T19:15:40;33.22;;;19.95;;
16967;SDS011;64862;54.398;10.126;2023-01-29T19:25:44;39.58;;;22.08;;
16967;SDS011;64862;54.398;10.126;2023-01-29T19:35:50;42.05;;;25.42;;
16967;SDS011;64862;54.398;10.126;2023-01-29T19:45:55;39.53;;;22.20;;
16967;SDS011;64862;54.398;10.126;2023-01-29T19:55:59;40.65;;;21.52;;
16967;SDS011;64862;54.398;10.126;2023-01-29T20:06:04;39.13;;;20.58;;
16967;SDS011;64862;54.398;10.126;2023-01-29T20:16:06;39.28;;;20.45;;
16967;SDS011;64862;54.398;10.126;2023-01-29T20:26:11;45.28;;;22.90;;
16967;SDS011;64862;54.398;10.126;2023-01-29T20:36:15;43.60;;;23.40;;
16967;SDS011;64862;54.398;10.126;2023-01-29T20:46:18;46.95;;;24.08;;
16967;SDS011;64862;54.398;10.126;2023-01-29T20:56:21;54.78;;;25.55;;
16967;SDS011;64862;54.398;10.126;2023-01-29T21:06:24;57.35;;;29.98;;
16967;SDS011;64862;54.398;10.126;2023-01-29T21:16:28;65.40;;;32.25;;
16967;SDS011;64862;54.398;10.126;2023-01-29T21:26:31;68.38;;;31.25;;
16967;SDS011;64862;54.398;10.126;2023-01-29T21:36:34;67.40;;;29.73;;
16967;SDS011;64862;54.398;10.126;2023-01-29T21:46:38;58.97;;;25.98;;
16967;SDS011;64862;54.398;10.126;2023-01-29T21:56:40;66.70;;;24.67;;
16967;SDS011;64862;54.398;10.126;2023-01-29T22:06:43;50.90;;;22.50;;
16967;SDS011;64862;54.398;10.126;2023-01-29T22:16:45;51.15;;;21.85;;
16967;SDS011;64862;54.398;10.126;2023-01-29T22:26:48;51.80;;;21.35;;
16967;SDS011;64862;54.398;10.126;2023-01-29T22:36:50;41.42;;;19.10;;
16967;SDS011;64862;54.398;10.126;2023-01-29T22:46:54;39.95;;;18.40;;
16967;SDS011;64862;54.398;10.126;2023-01-29T22:56:56;44.38;;;18.67;;
16967;SDS011;64862;54.398;10.126;2023-01-29T23:07:02;45.58;;;18.55;;
16967;SDS011;64862;54.398;10.126;2023-01-29T23:17:04;46.97;;;19.27;;
16967;SDS011;64862;54.398;10.126;2023-01-29T23:27:08;41.67;;;18.45;;
16967;SDS011;64862;54.398;10.126;2023-01-29T23:37:16;38.00;;;18.23;;
16967;SDS011;64862;54.398;10.126;2023-01-29T23:47:19;38.95;;;19.00;;
16967;SDS011;64862;54.398;10.126;2023-01-29T23:57:21;41.22;;;19.90;;
